sensor_id;sensor_type;location;lat;lon;timestamp;P1;durP1;ratioP1;P2;durP2;ratioP2
36547;SDS011;22551;52.206;4.856;2023-08-20T00:02:17;7.30;;;2.03;;
36547;SDS011;22551;52.206;4.856;2023-08-20T00:07:22;5.50;;;1.50;;
36547;SDS011;22551;52.206;4.856;2023-08-20T00:12:27;6.28;;;1.60;;
36547;SDS011;22551;52.206;4.856;2023-08-20T00:17:29;5.33;;;2.00;;
36547;SDS011;22551;52.206;4.856;2023-08-20T00:22:32;5.93;;;2.10;;
36547;SDS011;22551;52.206;4.856;2023-08-20T00:27:36;8.77;;;1.73;;
36547;SDS011;22551;52.206;4.856;2023-08-20T00:32:40;12.82;;;1.85;;
36547;SDS011;22551;52.206;4.856;2023-08-20T00:37:42;7.03;;;1.75;;
36547;SDS011;22551;52.206;4.856;2023-08-20T00:42:46;7.00;;;2.03;;
36547;SDS011;22551;52.206;4.856;2023-08-20T00:47:49;9.88;;;2.38;;
36547;SDS011;22551;52.206;4.856;2023-08-20T00:52:52;5.45;;;2.22;;
36547;SDS011;22551;52.206;4.856;2023-08-20T00:57:56;8.98;;;1.88;;
36547;SDS011;22551;52.206;4.856;2023-08-20T01:02:59;9.15;;;2.00;;
36547;SDS011;22551;52.206;4.856;2023-08-20T01:08:04;6.68;;;1.73;;
36547;SDS011;22551;52.206;4.856;2023-08-20T01:13:23;11.48;;;1.98;;
36547;SDS011;22551;52.206;4.856;2023-08-20T01:18:25;7.13;;;2.13;;
36547;SDS011;22551;52.206;4.856;2023-08-20T01:23:36;6.78;;;2.33;;
36547;SDS011;22551;52.206;4.856;2023-08-20T01:29:10;8.15;;;1.92;;
36547;SDS011;22551;52.206;4.856;2023-08-20T01:39:15;3.95;;;1.67;;
36547;SDS011;22551;52.206;4.856;2023-08-20T01:44:20;7.95;;;1.95;;
36547;SDS011;22551;52.206;4.856;2023-08-20T01:49:22;8.65;;;1.85;;
36547;SDS011;22551;52.206;4.856;2023-08-20T01:54:25;5.85;;;2.28;;
36547;SDS011;22551;52.206;4.856;2023-08-20T01:59:28;7.90;;;2.00;;
36547;SDS011;22551;52.206;4.856;2023-08-20T02:04:31;5.60;;;2.10;;
36547;SDS011;22551;52.206;4.856;2023-08-20T02:09:33;8.35;;;2.10;;
36547;SDS011;22551;52.206;4.856;2023-08-20T02:14:37;6.50;;;1.90;;
36547;SDS011;22551;52.206;4.856;2023-08-20T02:19:39;6.83;;;2.20;;
36547;SDS011;22551;52.206;4.856;2023-08-20T02:24:41;7.90;;;2.13;;
36547;SDS011;22551;52.206;4.856;2023-08-20T02:29:45;7.32;;;1.70;;
36547;SDS011;22551;52.206;4.856;2023-08-20T02:34:48;5.53;;;1.40;;
36547;SDS011;22551;52.206;4.856;2023-08-20T02:39:51;6.27;;;2.40;;
36547;SDS011;22551;52.206;4.856;2023-08-20T02:44:55;4.18;;;1.75;;
36547;SDS011;22551;52.206;4.856;2023-08-20T02:49:57;10.87;;;2.60;;
36547;SDS011;22551;52.206;4.856;2023-08-20T02:54:59;5.43;;;2.15;;
36547;SDS011;22551;52.206;4.856;2023-08-20T03:00:05;4.83;;;2.37;;
36547;SDS011;22551;52.206;4.856;2023-08-20T03:05:14;5.65;;;2.38;;
36547;SDS011;22551;52.206;4.856;2023-08-20T03:10:16;7.53;;;2.17;;
36547;SDS011;22551;52.206;4.856;2023-08-20T03:15:20;8.75;;;2.00;;
36547;SDS011;22551;52.206;4.856;2023-08-20T03:20:22;6.67;;;2.27;;
36547;SDS011;22551;52.206;4.856;2023-08-20T03:25:25;7.55;;;2.08;;
36547;SDS011;22551;52.206;4.856;2023-08-20T03:30:29;7.65;;;2.10;;
36547;SDS011;22551;52.206;4.856;2023-08-20T03:35:31;11.13;;;2.50;;
36547;SDS011;22551;52.206;4.856;2023-08-20T03:40:33;6.07;;;2.40;;
36547;SDS011;22551;52.206;4.856;2023-08-20T03:45:37;6.80;;;2.15;;
36547;SDS011;22551;52.206;4.856;2023-08-20T03:50:39;6.57;;;2.80;;
36547;SDS011;22551;52.206;4.856;2023-08-20T03:55:42;5.70;;;1.92;;
36547;SDS011;22551;52.206;4.856;2023-08-20T04:00:51;7.82;;;2.10;;
36547;SDS011;22551;52.206;4.856;2023-08-20T04:05:53;8.43;;;2.17;;
36547;SDS011;22551;52.206;4.856;2023-08-20T04:10:57;7.40;;;2.50;;
36547;SDS011;22551;52.206;4.856;2023-08-20T04:16:00;2.53;;;1.88;;
36547;SDS011;22551;52.206;4.856;2023-08-20T04:21:02;6.03;;;2.30;;
36547;SDS011;22551;52.206;4.856;2023-08-20T04:26:05;5.00;;;2.28;;
36547;SDS011;22551;52.206;4.856;2023-08-20T04:31:08;7.88;;;2.45;;
36547;SDS011;22551;52.206;4.856;2023-08-20T04:36:10;10.37;;;2.93;;
36547;SDS011;22551;52.206;4.856;2023-08-20T04:41:13;5.95;;;2.53;;
36547;SDS011;22551;52.206;4.856;2023-08-20T04:46:16;4.45;;;2.45;;
36547;SDS011;22551;52.206;4.856;2023-08-20T04:51:18;11.17;;;3.07;;
36547;SDS011;22551;52.206;4.856;2023-08-20T04:56:28;6.93;;;2.75;;
36547;SDS011;22551;52.206;4.856;2023-08-20T05:01:31;5.05;;;2.55;;
36547;SDS011;22551;52.206;4.856;2023-08-20T05:06:34;9.00;;;2.93;;
36547;SDS011;22551;52.206;4.856;2023-08-20T05:11:36;7.03;;;2.88;;
36547;SDS011;22551;52.206;4.856;2023-08-20T05:16:39;6.22;;;2.38;;
36547;SDS011;22551;52.206;4.856;2023-08-20T05:21:42;5.43;;;2.80;;
36547;SDS011;22551;52.206;4.856;2023-08-20T05:26:44;10.95;;;2.95;;
36547;SDS011;22551;52.206;4.856;2023-08-20T05:31:48;5.47;;;2.72;;
36547;SDS011;22551;52.206;4.856;2023-08-20T05:36:50;8.70;;;3.13;;
36547;SDS011;22551;52.206;4.856;2023-08-20T05:41:53;7.95;;;3.47;;
36547;SDS011;22551;52.206;4.856;2023-08-20T05:46:57;9.05;;;3.08;;
36547;SDS011;22551;52.206;4.856;2023-08-20T05:52:01;11.70;;;2.80;;
36547;SDS011;22551;52.206;4.856;2023-08-20T05:57:04;6.18;;;2.42;;
36547;SDS011;22551;52.206;4.856;2023-08-20T06:02:08;6.07;;;2.60;;
36547;SDS011;22551;52.206;4.856;2023-08-20T06:07:10;6.63;;;3.00;;
36547;SDS011;22551;52.206;4.856;2023-08-20T06:12:12;6.80;;;2.67;;
36547;SDS011;22551;52.206;4.856;2023-08-20T06:17:16;8.85;;;3.72;;
36547;SDS011;22551;52.206;4.856;2023-08-20T06:22:18;11.68;;;2.53;;
36547;SDS011;22551;52.206;4.856;2023-08-20T06:27:21;6.18;;;2.65;;
36547;SDS011;22551;52.206;4.856;2023-08-20T06:32:25;10.82;;;2.80;;
36547;SDS011;22551;52.206;4.856;2023-08-20T06:37:27;5.37;;;2.23;;
36547;SDS011;22551;52.206;4.856;2023-08-20T06:42:29;8.90;;;2.10;;
36547;SDS011;22551;52.206;4.856;2023-08-20T06:47:33;11.68;;;2.85;;
36547;SDS011;22551;52.206;4.856;2023-08-20T06:52:35;12.53;;;2.53;;
36547;SDS011;22551;52.206;4.856;2023-08-20T06:57:37;10.73;;;2.70;;
36547;SDS011;22551;52.206;4.856;2023-08-20T07:02:41;8.02;;;2.80;;
36547;SDS011;22551;52.206;4.856;2023-08-20T07:07:43;6.70;;;2.37;;
36547;SDS011;22551;52.206;4.856;2023-08-20T07:12:47;10.23;;;2.78;;
36547;SDS011;22551;52.206;4.856;2023-08-20T07:17:51;11.73;;;2.42;;
36547;SDS011;22551;52.206;4.856;2023-08-20T07:22:53;10.07;;;2.63;;
36547;SDS011;22551;52.206;4.856;2023-08-20T07:27:56;11.27;;;3.15;;
36547;SDS011;22551;52.206;4.856;2023-08-20T07:33:05;5.38;;;1.90;;
36547;SDS011;22551;52.206;4.856;2023-08-20T07:38:08;11.10;;;2.20;;
36547;SDS011;22551;52.206;4.856;2023-08-20T07:43:11;11.13;;;1.88;;
36547;SDS011;22551;52.206;4.856;2023-08-20T07:48:14;8.02;;;2.33;;
36547;SDS011;22551;52.206;4.856;2023-08-20T07:53:17;14.25;;;2.00;;
36547;SDS011;22551;52.206;4.856;2023-08-20T07:58:19;11.00;;;1.77;;
36547;SDS011;22551;52.206;4.856;2023-08-20T08:03:24;7.45;;;1.85;;
36547;SDS011;22551;52.206;4.856;2023-08-20T08:08:27;6.28;;;1.70;;
36547;SDS011;22551;52.206;4.856;2023-08-20T08:13:29;9.63;;;1.83;;
36547;SDS011;22551;52.206;4.856;2023-08-20T08:18:33;4.80;;;1.48;;
36547;SDS011;22551;52.206;4.856;2023-08-20T08:23:35;8.70;;;1.30;;
36547;SDS011;22551;52.206;4.856;2023-08-20T08:28:38;7.22;;;1.73;;
36547;SDS011;22551;52.206;4.856;2023-08-20T08:33:41;6.30;;;1.58;;
36547;SDS011;22551;52.206;4.856;2023-08-20T08:38:43;10.30;;;2.22;;
36547;SDS011;22551;52.206;4.856;2023-08-20T08:43:46;6.57;;;0.95;;
36547;SDS011;22551;52.206;4.856;2023-08-20T08:48:50;8.90;;;1.03;;
36547;SDS011;22551;52.206;4.856;2023-08-20T08:53:54;8.90;;;1.63;;
36547;SDS011;22551;52.206;4.856;2023-08-20T08:58:57;6.18;;;1.60;;
36547;SDS011;22551;52.206;4.856;2023-08-20T09:04:01;3.92;;;0.82;;
36547;SDS011;22551;52.206;4.856;2023-08-20T09:09:04;3.65;;;0.93;;
36547;SDS011;22551;52.206;4.856;2023-08-20T09:14:07;5.38;;;1.15;;
36547;SDS011;22551;52.206;4.856;2023-08-20T09:19:11;4.65;;;1.05;;
36547;SDS011;22551;52.206;4.856;2023-08-20T09:24:14;3.88;;;1.23;;
36547;SDS011;22551;52.206;4.856;2023-08-20T09:29:16;4.70;;;0.63;;
36547;SDS011;22551;52.206;4.856;2023-08-20T09:34:21;4.68;;;0.52;;
36547;SDS011;22551;52.206;4.856;2023-08-20T09:39:23;6.10;;;0.80;;
36547;SDS011;22551;52.206;4.856;2023-08-20T09:44:26;4.80;;;0.80;;
36547;SDS011;22551;52.206;4.856;2023-08-20T09:49:40;1.02;;;0.40;;
36547;SDS011;22551;52.206;4.856;2023-08-20T09:54:47;4.30;;;0.80;;
36547;SDS011;22551;52.206;4.856;2023-08-20T10:00:01;3.65;;;0.57;;
36547;SDS011;22551;52.206;4.856;2023-08-20T10:05:07;2.95;;;0.93;;
36547;SDS011;22551;52.206;4.856;2023-08-20T10:10:10;4.22;;;1.10;;
36547;SDS011;22551;52.206;4.856;2023-08-20T10:15:13;6.10;;;0.77;;
36547;SDS011;22551;52.206;4.856;2023-08-20T10:20:17;6.00;;;1.15;;
36547;SDS011;22551;52.206;4.856;2023-08-20T10:25:22;5.95;;;1.30;;
36547;SDS011;22551;52.206;4.856;2023-08-20T10:30:26;4.10;;;1.08;;
36547;SDS011;22551;52.206;4.856;2023-08-20T10:35:46;5.55;;;0.85;;
36547;SDS011;22551;52.206;4.856;2023-08-20T10:40:53;6.53;;;0.63;;
36547;SDS011;22551;52.206;4.856;2023-08-20T10:46:03;5.93;;;0.65;;
36547;SDS011;22551;52.206;4.856;2023-08-20T10:51:24;3.50;;;0.60;;
36547;SDS011;22551;52.206;4.856;2023-08-20T10:56:37;5.90;;;0.50;;
36547;SDS011;22551;52.206;4.856;2023-08-20T11:01:43;4.10;;;0.50;;
36547;SDS011;22551;52.206;4.856;2023-08-20T11:06:52;3.33;;;0.43;;
36547;SDS011;22551;52.206;4.856;2023-08-20T11:11:56;4.20;;;0.88;;
36547;SDS011;22551;52.206;4.856;2023-08-20T11:17:01;7.18;;;0.90;;
36547;SDS011;22551;52.206;4.856;2023-08-20T11:22:05;5.32;;;0.60;;
36547;SDS011;22551;52.206;4.856;2023-08-20T11:27:07;3.10;;;0.80;;
36547;SDS011;22551;52.206;4.856;2023-08-20T11:32:09;5.03;;;0.93;;
36547;SDS011;22551;52.206;4.856;2023-08-20T11:37:15;4.05;;;0.57;;
36547;SDS011;22551;52.206;4.856;2023-08-20T11:42:25;3.45;;;0.63;;
36547;SDS011;22551;52.206;4.856;2023-08-20T11:47:28;4.00;;;0.93;;
36547;SDS011;22551;52.206;4.856;2023-08-20T11:52:32;6.28;;;1.02;;
36547;SDS011;22551;52.206;4.856;2023-08-20T11:57:34;3.50;;;0.70;;
36547;SDS011;22551;52.206;4.856;2023-08-20T12:02:38;2.45;;;0.30;;
36547;SDS011;22551;52.206;4.856;2023-08-20T12:07:54;2.53;;;0.45;;
36547;SDS011;22551;52.206;4.856;2023-08-20T12:12:59;4.93;;;0.60;;
36547;SDS011;22551;52.206;4.856;2023-08-20T12:18:03;2.53;;;0.60;;
36547;SDS011;22551;52.206;4.856;2023-08-20T12:23:08;3.38;;;0.98;;
36547;SDS011;22551;52.206;4.856;2023-08-20T12:28:10;8.48;;;0.90;;
36547;SDS011;22551;52.206;4.856;2023-08-20T12:33:12;3.35;;;0.50;;
36547;SDS011;22551;52.206;4.856;2023-08-20T12:43:19;4.40;;;0.50;;
36547;SDS011;22551;52.206;4.856;2023-08-20T12:48:21;2.53;;;0.40;;
36547;SDS011;22551;52.206;4.856;2023-08-20T12:53:25;4.43;;;0.32;;
36547;SDS011;22551;52.206;4.856;2023-08-20T12:58:27;1.90;;;0.43;;
36547;SDS011;22551;52.206;4.856;2023-08-20T13:03:29;3.20;;;0.37;;
36547;SDS011;22551;52.206;4.856;2023-08-20T13:08:34;2.75;;;0.57;;
36547;SDS011;22551;52.206;4.856;2023-08-20T13:13:37;4.20;;;0.52;;
36547;SDS011;22551;52.206;4.856;2023-08-20T13:18:40;2.22;;;0.52;;
36547;SDS011;22551;52.206;4.856;2023-08-20T13:23:45;1.75;;;0.43;;
36547;SDS011;22551;52.206;4.856;2023-08-20T13:28:48;6.63;;;0.55;;
36547;SDS011;22551;52.206;4.856;2023-08-20T13:33:50;5.20;;;0.73;;
36547;SDS011;22551;52.206;4.856;2023-08-20T13:38:54;2.35;;;0.52;;
36547;SDS011;22551;52.206;4.856;2023-08-20T13:43:56;1.80;;;0.30;;
36547;SDS011;22551;52.206;4.856;2023-08-20T13:48:58;2.80;;;0.50;;
36547;SDS011;22551;52.206;4.856;2023-08-20T13:54:02;4.17;;;0.60;;
36547;SDS011;22551;52.206;4.856;2023-08-20T13:59:05;2.38;;;0.95;;
36547;SDS011;22551;52.206;4.856;2023-08-20T14:04:07;2.47;;;0.63;;
36547;SDS011;22551;52.206;4.856;2023-08-20T14:09:14;3.03;;;0.52;;
36547;SDS011;22551;52.206;4.856;2023-08-20T14:14:17;1.70;;;0.50;;
36547;SDS011;22551;52.206;4.856;2023-08-20T14:19:19;4.00;;;0.90;;
36547;SDS011;22551;52.206;4.856;2023-08-20T14:24:23;5.73;;;0.53;;
36547;SDS011;22551;52.206;4.856;2023-08-20T14:29:25;2.38;;;0.38;;
36547;SDS011;22551;52.206;4.856;2023-08-20T14:34:27;2.97;;;0.50;;
36547;SDS011;22551;52.206;4.856;2023-08-20T14:39:31;5.13;;;0.73;;
36547;SDS011;22551;52.206;4.856;2023-08-20T14:44:33;3.10;;;0.73;;
36547;SDS011;22551;52.206;4.856;2023-08-20T14:49:36;2.17;;;0.40;;
36547;SDS011;22551;52.206;4.856;2023-08-20T14:54:44;2.72;;;0.40;;
36547;SDS011;22551;52.206;4.856;2023-08-20T14:59:50;3.47;;;0.50;;
36547;SDS011;22551;52.206;4.856;2023-08-20T15:04:53;2.55;;;0.55;;
36547;SDS011;22551;52.206;4.856;2023-08-20T15:09:56;2.07;;;0.30;;
36547;SDS011;22551;52.206;4.856;2023-08-20T15:14:58;5.15;;;0.90;;
36547;SDS011;22551;52.206;4.856;2023-08-20T15:20:01;6.65;;;0.77;;
36547;SDS011;22551;52.206;4.856;2023-08-20T15:25:07;2.85;;;1.13;;
36547;SDS011;22551;52.206;4.856;2023-08-20T15:30:10;6.25;;;1.55;;
36547;SDS011;22551;52.206;4.856;2023-08-20T15:35:16;4.47;;;0.68;;
36547;SDS011;22551;52.206;4.856;2023-08-20T15:40:20;1.40;;;0.67;;
36547;SDS011;22551;52.206;4.856;2023-08-20T15:45:23;2.08;;;0.25;;
36547;SDS011;22551;52.206;4.856;2023-08-20T15:50:25;4.77;;;0.53;;
36547;SDS011;22551;52.206;4.856;2023-08-20T16:00:31;3.47;;;0.65;;
36547;SDS011;22551;52.206;4.856;2023-08-20T16:05:35;8.50;;;0.70;;
36547;SDS011;22551;52.206;4.856;2023-08-20T16:10:39;1.83;;;0.75;;
36547;SDS011;22551;52.206;4.856;2023-08-20T16:15:41;3.10;;;0.80;;
36547;SDS011;22551;52.206;4.856;2023-08-20T16:20:43;6.25;;;0.85;;
36547;SDS011;22551;52.206;4.856;2023-08-20T16:25:47;6.85;;;3.05;;
36547;SDS011;22551;52.206;4.856;2023-08-20T16:30:50;3.40;;;1.08;;
36547;SDS011;22551;52.206;4.856;2023-08-20T16:35:53;3.33;;;1.90;;
36547;SDS011;22551;52.206;4.856;2023-08-20T16:41:00;3.73;;;0.97;;
36547;SDS011;22551;52.206;4.856;2023-08-20T16:46:02;2.35;;;0.65;;
36547;SDS011;22551;52.206;4.856;2023-08-20T16:51:05;3.10;;;0.75;;
36547;SDS011;22551;52.206;4.856;2023-08-20T16:56:08;4.05;;;0.70;;
36547;SDS011;22551;52.206;4.856;2023-08-20T17:01:11;4.95;;;1.40;;
36547;SDS011;22551;52.206;4.856;2023-08-20T17:06:13;5.53;;;1.27;;
36547;SDS011;22551;52.206;4.856;2023-08-20T17:11:18;3.13;;;0.68;;
36547;SDS011;22551;52.206;4.856;2023-08-20T17:16:21;2.35;;;0.50;;
36547;SDS011;22551;52.206;4.856;2023-08-20T17:21:24;10.05;;;0.90;;
36547;SDS011;22551;52.206;4.856;2023-08-20T17:26:29;2.80;;;0.73;;
36547;SDS011;22551;52.206;4.856;2023-08-20T17:31:31;2.35;;;0.40;;
36547;SDS011;22551;52.206;4.856;2023-08-20T17:36:33;2.53;;;0.50;;
36547;SDS011;22551;52.206;4.856;2023-08-20T17:41:37;3.80;;;0.98;;
36547;SDS011;22551;52.206;4.856;2023-08-20T17:46:42;3.63;;;0.50;;
36547;SDS011;22551;52.206;4.856;2023-08-20T17:51:45;3.55;;;0.40;;
36547;SDS011;22551;52.206;4.856;2023-08-20T17:56:49;4.27;;;1.00;;
36547;SDS011;22551;52.206;4.856;2023-08-20T18:01:52;5.28;;;0.68;;
36547;SDS011;22551;52.206;4.856;2023-08-20T18:06:54;4.35;;;0.90;;
36547;SDS011;22551;52.206;4.856;2023-08-20T18:11:58;2.70;;;0.35;;
36547;SDS011;22551;52.206;4.856;2023-08-20T18:17:00;2.88;;;0.40;;
36547;SDS011;22551;52.206;4.856;2023-08-20T18:22:03;1.55;;;0.52;;
36547;SDS011;22551;52.206;4.856;2023-08-20T18:27:06;6.05;;;0.73;;
36547;SDS011;22551;52.206;4.856;2023-08-20T18:32:09;1.90;;;0.45;;
36547;SDS011;22551;52.206;4.856;2023-08-20T18:37:11;5.47;;;0.90;;
36547;SDS011;22551;52.206;4.856;2023-08-20T18:42:14;3.88;;;0.80;;
36547;SDS011;22551;52.206;4.856;2023-08-20T18:47:17;4.15;;;0.88;;
36547;SDS011;22551;52.206;4.856;2023-08-20T18:52:19;5.72;;;1.13;;
36547;SDS011;22551;52.206;4.856;2023-08-20T18:57:22;1.85;;;0.68;;
36547;SDS011;22551;52.206;4.856;2023-08-20T19:02:25;1.52;;;0.57;;
36547;SDS011;22551;52.206;4.856;2023-08-20T19:07:27;2.28;;;0.47;;
36547;SDS011;22551;52.206;4.856;2023-08-20T19:12:31;4.32;;;0.43;;
36547;SDS011;22551;52.206;4.856;2023-08-20T19:17:33;2.80;;;0.82;;
36547;SDS011;22551;52.206;4.856;2023-08-20T19:22:37;6.15;;;0.80;;
36547;SDS011;22551;52.206;4.856;2023-08-20T19:27:44;6.22;;;0.80;;
36547;SDS011;22551;52.206;4.856;2023-08-20T19:37:49;2.03;;;0.60;;
36547;SDS011;22551;52.206;4.856;2023-08-20T19:42:53;3.45;;;0.90;;
36547;SDS011;22551;52.206;4.856;2023-08-20T19:47:55;3.88;;;0.63;;
36547;SDS011;22551;52.206;4.856;2023-08-20T19:52:57;2.15;;;0.60;;
36547;SDS011;22551;52.206;4.856;2023-08-20T19:58:00;1.50;;;0.50;;
36547;SDS011;22551;52.206;4.856;2023-08-20T20:03:05;2.92;;;0.70;;
36547;SDS011;22551;52.206;4.856;2023-08-20T20:08:07;2.70;;;0.70;;
36547;SDS011;22551;52.206;4.856;2023-08-20T20:13:11;2.25;;;0.85;;
36547;SDS011;22551;52.206;4.856;2023-08-20T20:18:13;8.32;;;1.35;;
36547;SDS011;22551;52.206;4.856;2023-08-20T20:23:15;4.80;;;1.73;;
36547;SDS011;22551;52.206;4.856;2023-08-20T20:28:19;3.03;;;1.50;;
36547;SDS011;22551;52.206;4.856;2023-08-20T20:33:21;3.92;;;1.58;;
36547;SDS011;22551;52.206;4.856;2023-08-20T20:38:23;3.83;;;1.23;;
36547;SDS011;22551;52.206;4.856;2023-08-20T20:43:28;8.88;;;1.45;;
36547;SDS011;22551;52.206;4.856;2023-08-20T20:48:30;9.30;;;2.42;;
36547;SDS011;22551;52.206;4.856;2023-08-20T20:53:33;3.72;;;1.00;;
36547;SDS011;22551;52.206;4.856;2023-08-20T20:58:36;4.63;;;2.05;;
36547;SDS011;22551;52.206;4.856;2023-08-20T21:03:39;5.85;;;1.55;;
36547;SDS011;22551;52.206;4.856;2023-08-20T21:08:41;4.78;;;1.77;;
36547;SDS011;22551;52.206;4.856;2023-08-20T21:13:45;6.93;;;2.17;;
36547;SDS011;22551;52.206;4.856;2023-08-20T21:18:47;10.15;;;2.70;;
36547;SDS011;22551;52.206;4.856;2023-08-20T21:23:49;7.55;;;2.60;;
36547;SDS011;22551;52.206;4.856;2023-08-20T21:28:56;9.25;;;2.92;;
36547;SDS011;22551;52.206;4.856;2023-08-20T21:33:59;5.73;;;2.37;;
36547;SDS011;22551;52.206;4.856;2023-08-20T21:39:01;5.60;;;2.08;;
36547;SDS011;22551;52.206;4.856;2023-08-20T21:44:06;5.20;;;1.42;;
36547;SDS011;22551;52.206;4.856;2023-08-20T21:49:08;4.47;;;1.48;;
36547;SDS011;22551;52.206;4.856;2023-08-20T21:54:11;4.45;;;1.05;;
36547;SDS011;22551;52.206;4.856;2023-08-20T21:59:14;3.35;;;1.30;;
36547;SDS011;22551;52.206;4.856;2023-08-20T22:04:17;6.43;;;1.30;;
36547;SDS011;22551;52.206;4.856;2023-08-20T22:09:19;5.88;;;1.98;;
36547;SDS011;22551;52.206;4.856;2023-08-20T22:14:22;5.50;;;1.67;;
36547;SDS011;22551;52.206;4.856;2023-08-20T22:24:27;4.20;;;1.60;;
36547;SDS011;22551;52.206;4.856;2023-08-20T22:29:31;6.85;;;1.65;;
36547;SDS011;22551;52.206;4.856;2023-08-20T22:34:33;6.70;;;2.10;;
36547;SDS011;22551;52.206;4.856;2023-08-20T22:39:36;3.50;;;1.70;;
36547;SDS011;22551;52.206;4.856;2023-08-20T22:44:40;7.05;;;1.92;;
36547;SDS011;22551;52.206;4.856;2023-08-20T22:49:43;7.47;;;1.83;;
36547;SDS011;22551;52.206;4.856;2023-08-20T22:54:45;5.47;;;1.70;;
36547;SDS011;22551;52.206;4.856;2023-08-20T22:59:49;4.80;;;1.77;;
36547;SDS011;22551;52.206;4.856;2023-08-20T23:04:51;3.07;;;1.57;;
36547;SDS011;22551;52.206;4.856;2023-08-20T23:09:53;3.85;;;1.52;;
36547;SDS011;22551;52.206;4.856;2023-08-20T23:14:57;4.82;;;1.80;;
36547;SDS011;22551;52.206;4.856;2023-08-20T23:20:00;3.33;;;1.38;;
36547;SDS011;22551;52.206;4.856;2023-08-20T23:25:04;6.65;;;2.10;;
36547;SDS011;22551;52.206;4.856;2023-08-20T23:30:09;7.97;;;1.77;;
36547;SDS011;22551;52.206;4.856;2023-08-20T23:35:12;6.18;;;1.70;;
36547;SDS011;22551;52.206;4.856;2023-08-20T23:40:16;3.25;;;1.50;;
36547;SDS011;22551;52.206;4.856;2023-08-20T23:45:19;4.40;;;1.10;;
36547;SDS011;22551;52.206;4.856;2023-08-20T23:50:22;4.13;;;1.50;;
36547;SDS011;22551;52.206;4.856;2023-08-20T23:55:24;6.05;;;1.42;;
